Lefor, ND (58641)

8:49 AM MDT on October 01, 2014 (GMT -0600)
Dickinson Municipal | Change Station
CLOSE
Current Station
Airport
Location: Dickinson,
Elevation: 2592 ft
Nearby Weather Stations

Elev 2592 ft 46.80 °N, 102.80 °W | Updated 7 minutes ago

Overcast
Overcast
52 °F
Feels Like 52 °F
N
20
Wind Variable Wind from West
Gusts 29 mph

Today
High -- | Low -- °F
--% Chance of Precip.
Yesterday
High -- | Low -- °F
Precip. -- in
6:49 AM 6:30 PM
Waxing Crescent, 48% visible
Pressure 29.70 in
Visibility 10.0 miles
Clouds Overcast 1300 ft
Dew Point 47 °F
Humidity 83%
Rainfall 0.04 in
Snow Depth Not available.
UV 0 out of 12
Pollen .90 out of 12
Air Quality Not available.
Flu Activity Not available.
SPECI KDIK 011442Z AUTO 28017G25KT 10SM OVC013 11/08 A2970 RMK AO2 PK WND 27026/1424 T01110083

More Conditions Fewer Conditions

Pressure 29.70 in
Visibility 10.0 miles
Clouds Overcast 1300 ft
Dew Point 47 °F
Humidity 83%
Rainfall 0.04 in
Snow Depth Not available.
UV 0 out of 12
Pollen .90 out of 12
Air Quality Not available.
Flu Activity Not available.
SPECI KDIK 011442Z AUTO 28017G25KT 10SM OVC013 11/08 A2970 RMK AO2 PK WND 27026/1424 T01110083

More Conditions Fewer Conditions

10-Day Weather Forecast

Almanac

Astronomy

Oct. 01, 2014 Rise Set
Actual Time 6:49 AM MDT 6:30 PM MDT
Civil Twilight 6:19 AM MDT 7:00 PM MDT
Nautical Twilight 5:44 AM MDT 7:35 PM MDT
Astronomical Twilight 5:08 AM MDT 8:11 PM MDT
Moon 2:08 PM MDT 11:50 PM MDT
Length of Visible Light 12h 41m
Length of Day
11h 40m
Tomorrow will be 3m 18s shorter.
Waxing Crescent, 48% of the Moon is Illuminated
Today
Waxing Crescent
Oct 1
First Quarter
Oct 8
Full
Oct 15
Last Quarter
Oct 23
New

Today's Extremes

State Highs State Lows

Community

WunderPhotos

Upload Photos

1,757,960 photos uploaded!

Nearby

Snow Depth

Station Depth Elevation
No new snow has been reported.

Earthquake Activity

City Distance Mag. Time & Date
No recent earthquake activity has been reported nearby.
Minimum magnitude displayed is 2.5.

Coastal Water Temperatures

Place Temperature
No Stations Reporting

Nearby Weather Stations